Time;durP1;ratioP1;P1;durP2;ratioP2;P2;SDS_P1;SDS_P2;PMS_P1;PMS_P2;Temp;Humidity;BMP_temperature;BMP_pressure;BME280_temperature;BME280_humidity;BME280_pressure;Samples;Min_cycle;Max_cycle;Signal;HPM_P1;HPM_P2
2022/12/11 00:02:18;;;;;;;71.28;19.63;;;;;;;;;;5052936;28;20072;-86
2022/12/11 00:04:44;;;;;;;61.83;18.00;;;;;;;;;;5031493;28;20333;-87
2022/12/11 00:07:10;;;;;;;84.32;20.27;;;;;;;;;;5048239;28;20049;-86
2022/12/11 00:09:36;;;;;;;73.40;20.45;;;;;;;;;;5048273;28;20037;-87
2022/12/11 00:12:04;;;;;;;72.55;18.80;;;;;;;;;;5076804;28;20494;-88
2022/12/11 00:14:30;;;;;;;64.43;18.55;;;;;;;;;;5088073;28;20059;-87
2022/12/11 00:16:56;;;;;;;64.20;19.08;;;;;;;;;;5084323;28;20045;-87
2022/12/11 00:19:22;;;;;;;71.63;20.77;;;;;;;;;;5108765;28;20048;-87
2022/12/11 00:21:48;;;;;;;71.28;19.67;;;;;;;;;;5106327;28;20047;-87
2022/12/11 00:24:14;;;;;;;55.55;17.65;;;;;;;;;;5084774;28;20174;-86
2022/12/11 00:26:40;;;;;;;71.93;19.52;;;;;;;;;;5089070;28;20134;-87
2022/12/11 00:29:13;;;;;;;58.40;19.17;;;;;;;;;;5070420;28;20044;-87
2022/12/11 00:31:39;;;;;;;59.58;18.00;;;;;;;;;;5070920;28;20421;-88
2022/12/11 00:34:05;;;;;;;69.97;20.33;;;;;;;;;;5070174;28;20051;-87
2022/12/11 00:36:31;;;;;;;58.92;18.20;;;;;;;;;;5088137;28;20489;-87
2022/12/11 00:38:57;;;;;;;52.63;17.80;;;;;;;;;;5108147;28;20051;-87
2022/12/11 00:41:25;;;;;;;60.38;18.88;;;;;;;;;;5091065;28;20043;-87
2022/12/11 00:43:51;;;;;;;62.13;17.65;;;;;;;;;;5090867;28;20497;-87
2022/12/11 00:46:18;;;;;;;60.97;18.63;;;;;;;;;;5090890;28;20130;-87
2022/12/11 00:48:45;;;;;;;67.90;19.02;;;;;;;;;;5077533;28;20040;-87
2022/12/11 00:51:11;;;;;;;67.47;17.60;;;;;;;;;;5086725;28;20561;-86
2022/12/11 00:53:37;;;;;;;61.28;18.85;;;;;;;;;;5086762;28;20104;-87
2022/12/11 00:56:14;;;;;;;75.13;19.77;;;;;;;;;;5070003;28;20059;-87
2022/12/11 00:58:40;;;;;;;59.00;17.48;;;;;;;;;;5071187;28;20051;-87
2022/12/11 01:01:07;;;;;;;48.78;16.88;;;;;;;;;;5087447;28;20052;-87
2022/12/11 01:03:33;;;;;;;54.28;19.33;;;;;;;;;;5087577;28;20040;-88
2022/12/11 01:05:59;;;;;;;61.65;20.20;;;;;;;;;;5071199;28;20044;-86
2022/12/11 01:08:25;;;;;;;63.08;18.08;;;;;;;;;;5087079;28;20413;-88
2022/12/11 01:10:51;;;;;;;61.40;19.65;;;;;;;;;;5071966;28;20044;-87
2022/12/11 01:13:17;;;;;;;63.22;18.17;;;;;;;;;;5070772;28;20064;-86
2022/12/11 01:15:44;;;;;;;53.58;17.65;;;;;;;;;;5070700;28;20565;-88
2022/12/11 01:18:12;;;;;;;53.33;17.98;;;;;;;;;;5103364;27;20043;-87
2022/12/11 01:20:38;;;;;;;57.50;17.73;;;;;;;;;;5094517;27;20070;-88
2022/12/11 01:23:05;;;;;;;53.67;17.75;;;;;;;;;;5095439;28;20036;-88
2022/12/11 01:25:32;;;;;;;55.13;17.73;;;;;;;;;;5090662;28;20127;-87
2022/12/11 01:27:58;;;;;;;58.33;17.85;;;;;;;;;;5073299;28;20123;-87
2022/12/11 01:30:25;;;;;;;59.47;18.38;;;;;;;;;;5103674;28;20046;-86
2022/12/11 01:32:51;;;;;;;58.50;18.52;;;;;;;;;;5110327;28;20082;-87
2022/12/11 01:35:17;;;;;;;52.75;19.02;;;;;;;;;;5110397;28;20051;-86
2022/12/11 01:37:43;;;;;;;59.60;18.65;;;;;;;;;;5097171;28;20534;-87
2022/12/11 01:40:11;;;;;;;63.78;18.83;;;;;;;;;;5090952;28;20573;-86
2022/12/11 01:42:37;;;;;;;56.72;17.65;;;;;;;;;;5093439;28;20051;-87
2022/12/11 01:45:21;;;;;;;45.80;16.65;;;;;;;;;;5105423;27;20051;-88
2022/12/11 01:47:48;;;;;;;56.00;18.52;;;;;;;;;;5114734;27;20070;-87
2022/12/11 01:50:15;;;;;;;56.28;18.40;;;;;;;;;;5115096;27;20134;-88
2022/12/11 01:52:42;;;;;;;54.28;17.38;;;;;;;;;;5099588;28;20036;-88
2022/12/11 01:55:09;;;;;;;55.70;17.48;;;;;;;;;;5094183;28;20044;-87
2022/12/11 01:57:40;;;;;;;58.15;18.73;;;;;;;;;;5077198;28;20044;-86
2022/12/11 02:00:06;;;;;;;59.38;19.00;;;;;;;;;;5092863;27;20131;-88
2022/12/11 02:02:32;;;;;;;54.42;18.13;;;;;;;;;;5097466;27;20039;-87
2022/12/11 02:04:59;;;;;;;59.92;19.23;;;;;;;;;;5096347;27;20509;-87
2022/12/11 02:07:25;;;;;;;55.78;17.60;;;;;;;;;;5082313;28;20142;-86
2022/12/11 02:09:52;;;;;;;56.97;17.98;;;;;;;;;;5093930;28;20162;-87
2022/12/11 02:12:26;;;;;;;59.58;17.38;;;;;;;;;;5110174;27;20051;-87
2022/12/11 02:14:52;;;;;;;53.60;17.88;;;;;;;;;;5098244;28;20071;-87
2022/12/11 02:17:25;;;;;;;64.80;18.13;;;;;;;;;;5073661;28;20136;-87
2022/12/11 02:20:04;;;;;;;55.53;16.05;;;;;;;;;;5091457;28;20130;-87
2022/12/11 02:22:39;;;;;;;54.35;15.75;;;;;;;;;;5090871;28;20048;-88
2022/12/11 02:25:05;;;;;;;51.72;16.95;;;;;;;;;;5097285;28;20465;-87
2022/12/11 02:27:37;;;;;;;51.80;16.65;;;;;;;;;;5093491;28;20051;-88
2022/12/11 02:30:06;;;;;;;53.45;17.38;;;;;;;;;;5104695;27;20058;-87
2022/12/11 02:32:59;;;;;;;58.88;18.13;;;;;;;;;;5093643;27;20131;-88
2022/12/11 02:35:27;;;;;;;62.05;18.48;;;;;;;;;;5111214;27;20516;-87
2022/12/11 02:37:57;;;;;;;58.63;17.25;;;;;;;;;;5094401;28;20047;-87
2022/12/11 02:40:26;;;;;;;59.88;17.65;;;;;;;;;;5092881;28;20043;-87
2022/12/11 02:42:52;;;;;;;48.90;16.48;;;;;;;;;;5093420;28;20450;-87
2022/12/11 02:45:19;;;;;;;59.08;19.15;;;;;;;;;;5093172;28;20374;-87
2022/12/11 02:47:47;;;;;;;64.95;18.50;;;;;;;;;;5093681;28;20058;-86
2022/12/11 02:50:15;;;;;;;56.10;18.20;;;;;;;;;;5093022;28;20093;-87
2022/12/11 02:52:42;;;;;;;63.70;19.42;;;;;;;;;;5074282;28;20051;-88
2022/12/11 02:55:09;;;;;;;53.80;17.17;;;;;;;;;;5076623;28;20047;-86
2022/12/11 02:57:39;;;;;;;49.00;16.90;;;;;;;;;;5092815;28;20052;-88
2022/12/11 03:00:05;;;;;;;50.70;16.98;;;;;;;;;;5076582;28;20444;-87
2022/12/11 03:02:31;;;;;;;53.50;17.55;;;;;;;;;;5075902;28;20502;-87
2022/12/11 03:04:58;;;;;;;58.80;18.33;;;;;;;;;;5093655;28;20044;-88
2022/12/11 03:07:26;;;;;;;52.05;16.83;;;;;;;;;;5086120;28;20044;-88
2022/12/11 03:09:52;;;;;;;64.38;22.95;;;;;;;;;;5072844;28;20073;-88
2022/12/11 03:12:23;;;;;;;77.15;25.30;;;;;;;;;;5096775;28;20056;-87
2022/12/11 03:14:52;;;;;;;54.47;20.17;;;;;;;;;;5092933;28;20047;-87
2022/12/11 03:17:20;;;;;;;58.95;20.65;;;;;;;;;;5093145;28;20413;-87
2022/12/11 03:20:03;;;;;;;57.25;19.08;;;;;;;;;;5095107;28;20040;-87
2022/12/11 03:22:47;;;;;;;59.70;19.02;;;;;;;;;;5075710;28;20560;-86
2022/12/11 03:25:19;;;;;;;54.97;19.35;;;;;;;;;;5092509;28;20117;-87
2022/12/11 03:27:50;;;;;;;45.03;16.40;;;;;;;;;;5110212;28;20484;-87
2022/12/11 03:30:17;;;;;;;58.30;19.50;;;;;;;;;;5109364;28;20124;-87
2022/12/11 03:32:48;;;;;;;52.03;16.77;;;;;;;;;;5109824;28;20044;-87
2022/12/11 03:35:18;;;;;;;46.00;16.98;;;;;;;;;;5123235;27;20429;-87
2022/12/11 03:37:46;;;;;;;46.47;17.30;;;;;;;;;;5091776;28;20553;-88
2022/12/11 03:40:14;;;;;;;55.97;17.88;;;;;;;;;;5092392;28;20490;-87
2022/12/11 03:42:41;;;;;;;52.97;17.27;;;;;;;;;;5108716;28;20050;-87
2022/12/11 03:45:08;;;;;;;52.10;18.70;;;;;;;;;;5091933;28;20043;-88
2022/12/11 03:47:34;;;;;;;59.13;19.20;;;;;;;;;;5090464;28;20050;-87
2022/12/11 03:50:01;;;;;;;50.65;17.35;;;;;;;;;;5092249;28;20043;-88
2022/12/11 03:52:28;;;;;;;52.13;18.42;;;;;;;;;;5091721;28;20577;-87
2022/12/11 03:54:56;;;;;;;49.42;16.60;;;;;;;;;;5092183;28;20071;-88
2022/12/11 03:57:24;;;;;;;61.38;17.52;;;;;;;;;;5108132;28;20055;-88
2022/12/11 03:59:50;;;;;;;55.72;17.05;;;;;;;;;;5075167;28;20044;-85
2022/12/11 04:02:16;;;;;;;58.53;17.20;;;;;;;;;;5059593;27;20055;-85
2022/12/11 04:04:43;;;;;;;62.00;17.17;;;;;;;;;;5089067;27;20055;-86
2022/12/11 04:07:11;;;;;;;58.65;17.80;;;;;;;;;;5111898;27;20047;-88
2022/12/11 04:09:37;;;;;;;48.60;16.75;;;;;;;;;;5093431;27;20058;-87
2022/12/11 04:12:03;;;;;;;47.47;16.40;;;;;;;;;;5111764;27;20142;-86
2022/12/11 04:24:13;;;;;;;61.20;18.15;;;;;;;;;;5112405;27;20055;-86
2022/12/11 04:25:41;;;;;;;53.13;18.15;;;;;;;;;;5073447;27;20133;-88
2022/12/11 04:28:07;;;;;;;58.38;18.23;;;;;;;;;;5094635;27;20092;-89
2022/12/11 04:30:33;;;;;;;50.63;16.80;;;;;;;;;;5111161;27;20043;-88
2022/12/11 04:32:59;;;;;;;55.88;18.48;;;;;;;;;;5104193;28;20131;-88
2022/12/11 04:35:25;;;;;;;59.53;18.88;;;;;;;;;;5090626;28;20138;-88
2022/12/11 04:37:52;;;;;;;50.97;18.75;;;;;;;;;;5090928;28;20485;-87
2022/12/11 04:40:18;;;;;;;59.63;18.35;;;;;;;;;;5091076;28;20047;-88
2022/12/11 04:42:44;;;;;;;51.63;17.08;;;;;;;;;;5090730;28;20048;-88
2022/12/11 04:45:11;;;;;;;51.42;18.25;;;;;;;;;;5091428;28;20090;-88
2022/12/11 04:47:37;;;;;;;61.80;18.83;;;;;;;;;;5083072;28;20116;-89
2022/12/11 04:50:05;;;;;;;55.63;18.15;;;;;;;;;;5108039;28;20039;-88
2022/12/11 04:52:31;;;;;;;50.72;17.20;;;;;;;;;;5090933;28;20039;-88
2022/12/11 04:54:57;;;;;;;56.25;17.27;;;;;;;;;;5078408;27;20444;-86
2022/12/11 04:57:23;;;;;;;54.25;17.55;;;;;;;;;;5106580;27;20074;-85
2022/12/11 04:59:49;;;;;;;53.17;17.25;;;;;;;;;;5091015;28;20090;-86
2022/12/11 05:02:15;;;;;;;51.08;17.30;;;;;;;;;;5073818;28;20853;-85
2022/12/11 05:04:41;;;;;;;47.53;16.50;;;;;;;;;;5090916;28;20078;-86
2022/12/11 05:07:08;;;;;;;54.50;16.88;;;;;;;;;;5090396;28;20052;-86
2022/12/11 05:09:34;;;;;;;55.92;18.23;;;;;;;;;;5090690;28;20044;-86
2022/12/11 05:12:00;;;;;;;53.38;17.23;;;;;;;;;;5089842;28;20055;-86
2022/12/11 05:14:30;;;;;;;46.22;16.98;;;;;;;;;;5109711;27;20338;-88
2022/12/11 05:16:57;;;;;;;56.40;16.88;;;;;;;;;;5110207;28;20085;-87
2022/12/11 05:19:23;;;;;;;48.92;16.40;;;;;;;;;;5105282;27;20099;-87
2022/12/11 05:21:49;;;;;;;47.83;15.77;;;;;;;;;;5110973;28;20047;-87
2022/12/11 05:24:17;;;;;;;47.55;17.13;;;;;;;;;;5109728;27;20820;-86
2022/12/11 05:26:43;;;;;;;52.42;16.83;;;;;;;;;;5110051;27;20468;-86
2022/12/11 05:29:09;;;;;;;44.60;16.33;;;;;;;;;;5110337;27;20275;-87
2022/12/11 05:31:35;;;;;;;53.20;15.95;;;;;;;;;;5092408;28;20205;-85
2022/12/11 05:34:02;;;;;;;55.70;16.25;;;;;;;;;;5103519;28;20083;-87
2022/12/11 05:36:29;;;;;;;50.22;17.05;;;;;;;;;;5106518;28;20605;-87
2022/12/11 05:38:55;;;;;;;51.33;16.85;;;;;;;;;;5073338;28;20595;-86
2022/12/11 05:41:22;;;;;;;48.22;16.90;;;;;;;;;;5089322;28;20040;-87
2022/12/11 05:43:48;;;;;;;52.67;16.65;;;;;;;;;;5073232;28;20688;-86
2022/12/11 05:46:16;;;;;;;49.55;17.30;;;;;;;;;;5072837;28;20116;-86
2022/12/11 05:48:45;;;;;;;42.60;14.23;;;;;;;;;;5075584;28;20485;-87
2022/12/11 05:51:11;;;;;;;49.55;16.20;;;;;;;;;;5122279;28;20058;-86
2022/12/11 05:53:38;;;;;;;43.00;16.27;;;;;;;;;;5088730;28;20048;-87
2022/12/11 05:56:08;;;;;;;49.13;15.85;;;;;;;;;;5090069;28;20055;-87
2022/12/11 05:58:37;;;;;;;50.80;15.63;;;;;;;;;;5106219;28;20138;-86
2022/12/11 06:01:06;;;;;;;47.67;17.08;;;;;;;;;;5089956;28;20075;-86
2022/12/11 06:03:32;;;;;;;48.67;16.70;;;;;;;;;;5090257;28;20134;-87
2022/12/11 06:06:03;;;;;;;48.25;17.15;;;;;;;;;;5089882;28;20511;-87
2022/12/11 06:08:29;;;;;;;41.65;16.15;;;;;;;;;;5089816;28;20051;-86
2022/12/11 06:10:55;;;;;;;49.78;15.90;;;;;;;;;;5107792;28;20413;-88
2022/12/11 06:13:21;;;;;;;47.13;16.60;;;;;;;;;;5123210;28;20051;-87
2022/12/11 06:15:47;;;;;;;44.28;15.60;;;;;;;;;;5093538;28;20047;-86
2022/12/11 06:18:15;;;;;;;47.17;16.35;;;;;;;;;;5110172;28;20047;-88
2022/12/11 06:20:41;;;;;;;53.88;17.88;;;;;;;;;;5110433;28;20066;-86
2022/12/11 06:23:07;;;;;;;46.08;15.70;;;;;;;;;;5107003;28;20609;-87
2022/12/11 06:25:33;;;;;;;41.40;15.52;;;;;;;;;;5109636;28;20079;-86
2022/12/11 06:27:59;;;;;;;47.88;16.10;;;;;;;;;;5094708;27;20039;-86
2022/12/11 06:30:25;;;;;;;44.00;15.95;;;;;;;;;;5097046;27;20051;-87
2022/12/11 06:32:51;;;;;;;50.45;17.50;;;;;;;;;;5096914;27;20390;-87
2022/12/11 06:35:17;;;;;;;48.17;16.05;;;;;;;;;;5114333;27;20049;-87
2022/12/11 06:37:48;;;;;;;41.85;16.17;;;;;;;;;;5096296;27;20047;-87
2022/12/11 06:40:15;;;;;;;43.42;14.82;;;;;;;;;;5113692;27;20181;-87
2022/12/11 06:42:41;;;;;;;45.92;17.27;;;;;;;;;;5110807;27;20047;-86
2022/12/11 06:45:12;;;;;;;48.00;15.93;;;;;;;;;;5110220;27;20047;-86
2022/12/11 06:47:38;;;;;;;53.90;17.57;;;;;;;;;;5093691;27;20141;-88
2022/12/11 06:50:07;;;;;;;53.45;16.45;;;;;;;;;;5106220;27;20050;-87
2022/12/11 06:52:33;;;;;;;53.13;17.00;;;;;;;;;;5099276;28;20039;-89
2022/12/11 06:55:01;;;;;;;45.42;16.05;;;;;;;;;;5104174;27;20039;-87
2022/12/11 06:57:27;;;;;;;45.63;16.15;;;;;;;;;;5072444;28;20175;-86
2022/12/11 06:59:55;;;;;;;49.50;16.90;;;;;;;;;;5106428;28;20551;-87
2022/12/11 07:02:21;;;;;;;49.92;16.55;;;;;;;;;;5087739;28;20081;-87
2022/12/11 07:04:50;;;;;;;49.97;16.63;;;;;;;;;;5076889;28;20517;-86
2022/12/11 07:07:16;;;;;;;51.08;17.40;;;;;;;;;;5089541;28;20859;-86
2022/12/11 07:09:42;;;;;;;47.20;17.20;;;;;;;;;;5089441;28;20052;-87
2022/12/11 07:12:08;;;;;;;41.92;16.50;;;;;;;;;;5068277;28;20104;-87
2022/12/11 07:14:34;;;;;;;52.72;17.88;;;;;;;;;;5091817;28;20087;-86
2022/12/11 07:17:00;;;;;;;45.40;15.93;;;;;;;;;;5091738;28;20054;-86
2022/12/11 07:19:28;;;;;;;46.67;16.85;;;;;;;;;;5092951;28;20044;-86
2022/12/11 07:21:54;;;;;;;54.10;17.27;;;;;;;;;;5091603;28;20048;-86
2022/12/11 07:24:20;;;;;;;52.30;17.17;;;;;;;;;;5090901;28;20233;-87
2022/12/11 07:26:49;;;;;;;44.20;16.58;;;;;;;;;;5093833;28;20308;-87
2022/12/11 07:29:15;;;;;;;44.47;15.95;;;;;;;;;;5081696;27;20055;-83
2022/12/11 07:31:43;;;;;;;59.17;18.10;;;;;;;;;;5089000;28;20058;-83
2022/12/11 07:34:14;;;;;;;45.78;15.77;;;;;;;;;;5111760;27;20085;-83
2022/12/11 07:36:40;;;;;;;45.95;15.60;;;;;;;;;;5104307;28;20040;-84
2022/12/11 07:39:07;;;;;;;47.28;15.65;;;;;;;;;;5119663;27;20343;-85
2022/12/11 07:41:35;;;;;;;44.10;15.40;;;;;;;;;;5097386;28;20058;-84
2022/12/11 07:44:05;;;;;;;48.80;16.83;;;;;;;;;;5079443;28;20121;-84
2022/12/11 07:46:32;;;;;;;46.65;15.48;;;;;;;;;;5121469;27;20047;-85
2022/12/11 07:48:59;;;;;;;53.85;16.63;;;;;;;;;;5126868;27;20039;-83
2022/12/11 07:51:30;;;;;;;44.15;15.35;;;;;;;;;;5113600;27;20481;-84
2022/12/11 07:53:57;;;;;;;43.92;15.50;;;;;;;;;;5121034;27;20552;-84
2022/12/11 07:56:23;;;;;;;46.17;15.45;;;;;;;;;;5128888;27;20054;-84
2022/12/11 07:58:50;;;;;;;41.70;15.00;;;;;;;;;;5107777;27;20408;-84
2022/12/11 08:01:22;;;;;;;46.28;15.82;;;;;;;;;;5107331;27;20039;-84
2022/12/11 08:03:49;;;;;;;44.65;16.48;;;;;;;;;;5120173;27;20043;-84
2022/12/11 08:06:15;;;;;;;45.30;15.82;;;;;;;;;;5090517;28;20105;-84
2022/12/11 08:08:42;;;;;;;41.00;15.98;;;;;;;;;;5091063;28;20126;-84
2022/12/11 08:11:10;;;;;;;49.20;16.42;;;;;;;;;;5091294;27;20462;-84
2022/12/11 08:13:36;;;;;;;47.60;15.63;;;;;;;;;;5126758;27;20074;-84
2022/12/11 08:16:08;;;;;;;44.28;16.58;;;;;;;;;;5128828;27;20561;-84
2022/12/11 08:18:34;;;;;;;;;;;;;;;;;;5093451;27;20492;-84
2022/12/11 08:21:10;;;;;;;44.67;15.00;;;;;;;;;;5125934;27;19920;-84
2022/12/11 08:23:38;;;;;;;46.72;15.65;;;;;;;;;;5079702;27;20579;-84
2022/12/11 08:26:10;;;;;;;39.65;15.48;;;;;;;;;;5109968;27;20525;-83
2022/12/11 08:28:36;;;;;;;47.47;16.23;;;;;;;;;;5078944;27;20050;-84
2022/12/11 08:31:12;;;;;;;45.33;16.92;;;;;;;;;;5102227;28;20051;-85
2022/12/11 08:33:39;;;;;;;48.83;16.95;;;;;;;;;;5096682;27;20127;-84
2022/12/11 08:36:11;;;;;;;47.63;17.65;;;;;;;;;;5108613;27;20054;-83
2022/12/11 08:38:37;;;;;;;52.05;17.23;;;;;;;;;;5110558;27;20051;-84
2022/12/11 08:41:14;;;;;;;47.42;18.15;;;;;;;;;;5083766;27;20043;-84
2022/12/11 08:43:53;;;;;;;50.67;16.90;;;;;;;;;;5086762;28;20195;-83
2022/12/11 08:46:19;;;;;;;51.22;18.30;;;;;;;;;;5096901;27;20047;-84
2022/12/11 08:48:45;;;;;;;54.53;19.00;;;;;;;;;;5111314;27;20043;-85
2022/12/11 08:51:13;;;;;;;43.13;17.00;;;;;;;;;;5106768;27;20573;-84
2022/12/11 08:53:39;;;;;;;52.70;19.10;;;;;;;;;;5090654;28;20488;-83
2022/12/11 08:56:15;;;;;;;52.30;16.85;;;;;;;;;;5090051;28;20047;-82
2022/12/11 08:58:41;;;;;;;41.50;17.75;;;;;;;;;;5090664;28;21089;-83
2022/12/11 09:01:08;;;;;;;50.38;17.85;;;;;;;;;;5089937;28;20058;-83
2022/12/11 09:03:34;;;;;;;48.83;18.00;;;;;;;;;;5091062;28;20342;-83
2022/12/11 09:06:03;;;;;;;46.88;18.17;;;;;;;;;;5073631;28;20047;-83
2022/12/11 09:08:29;;;;;;;47.28;17.90;;;;;;;;;;5107785;28;20059;-83
2022/12/11 09:10:55;;;;;;;45.13;17.10;;;;;;;;;;5108099;28;20039;-83
2022/12/11 09:13:21;;;;;;;42.90;16.73;;;;;;;;;;5090389;28;20054;-83
2022/12/11 09:15:47;;;;;;;45.85;16.42;;;;;;;;;;5090453;28;20444;-83
2022/12/11 09:18:13;;;;;;;53.55;18.08;;;;;;;;;;5090104;28;20097;-83
2022/12/11 09:20:41;;;;;;;45.47;17.67;;;;;;;;;;5090213;28;20044;-83
2022/12/11 09:23:07;;;;;;;47.13;17.02;;;;;;;;;;5107720;28;20179;-86
2022/12/11 09:25:33;;;;;;;48.47;17.40;;;;;;;;;;5072491;28;20051;-84
2022/12/11 09:28:07;;;;;;;47.67;17.27;;;;;;;;;;5107636;28;20083;-84
2022/12/11 09:30:36;;;;;;;41.75;17.60;;;;;;;;;;5089799;28;20051;-84
2022/12/11 09:33:05;;;;;;;43.20;17.80;;;;;;;;;;5073212;28;20062;-84
2022/12/11 09:35:34;;;;;;;42.28;16.58;;;;;;;;;;5073125;28;20058;-84
2022/12/11 09:38:01;;;;;;;49.13;17.23;;;;;;;;;;5089758;28;20695;-84
2022/12/11 09:40:28;;;;;;;47.15;17.52;;;;;;;;;;5107877;28;20044;-84
2022/12/11 09:42:56;;;;;;;50.05;16.13;;;;;;;;;;5089762;28;20050;-84
2022/12/11 09:45:23;;;;;;;44.75;16.05;;;;;;;;;;5089737;28;20052;-84
2022/12/11 09:47:53;;;;;;;46.80;17.15;;;;;;;;;;5107441;28;20081;-84
2022/12/11 09:50:32;;;;;;;45.08;17.33;;;;;;;;;;5072973;28;20081;-83
2022/12/11 09:53:08;;;;;;;51.55;16.67;;;;;;;;;;5089490;28;20067;-83
2022/12/11 09:55:42;;;;;;;42.67;15.88;;;;;;;;;;5089130;28;20050;-84
2022/12/11 09:58:21;;;;;;;43.65;16.98;;;;;;;;;;5072841;28;20052;-82
2022/12/11 10:00:52;;;;;;;40.97;16.88;;;;;;;;;;5089781;28;20039;-83
2022/12/11 10:03:21;;;;;;;41.60;16.48;;;;;;;;;;5093171;28;20195;-84
2022/12/11 10:06:08;;;;;;;44.50;16.58;;;;;;;;;;5093952;28;20393;-83
2022/12/11 10:08:55;;;;;;;45.35;16.52;;;;;;;;;;5103552;27;20074;-82
2022/12/11 10:11:42;;;;;;;46.72;16.77;;;;;;;;;;5106218;27;20110;-83
2022/12/11 10:14:30;;;;;;;48.75;17.38;;;;;;;;;;5083894;28;20043;-83
2022/12/11 10:16:58;;;;;;;44.35;15.77;;;;;;;;;;5076623;28;20086;-83
2022/12/11 10:19:26;;;;;;;43.33;16.20;;;;;;;;;;5107876;28;20795;-83
2022/12/11 10:21:52;;;;;;;40.22;15.52;;;;;;;;;;5110681;28;20040;-83
2022/12/11 10:24:30;;;;;;;40.92;16.60;;;;;;;;;;5114125;27;20138;-82
2022/12/11 10:26:59;;;;;;;49.03;18.08;;;;;;;;;;5092913;28;20043;-82
2022/12/11 10:29:25;;;;;;;43.03;15.93;;;1.00;99.90;;;;;;5093204;28;20044;-83
2022/12/11 10:31:57;;;;;;;45.20;16.23;;;1.10;99.90;;;;;;5093498;28;20050;-85
2022/12/11 10:34:38;;;;;;;44.72;16.60;;;1.00;99.90;;;;;;5075161;28;20046;-81
2022/12/11 10:37:04;;;;;;;39.60;16.88;;;0.90;99.90;;;;;;5091199;28;20482;-82
2022/12/11 10:39:30;;;;;;;43.22;16.38;;;1.00;99.90;;;;;;5064758;28;20051;-84
2022/12/11 10:41:56;;;;;;;42.85;15.18;;;1.00;99.90;;;;;;5114599;27;20866;-83
2022/12/11 10:44:23;;;;;;;41.50;16.73;;;1.00;99.90;;;;;;5127466;27;20515;-83
2022/12/11 10:47:00;;;;;;;40.88;16.70;;;1.00;99.90;;;;;;5132000;27;20066;-82
2022/12/11 10:49:31;;;;;;;37.65;16.25;;;1.00;99.90;;;;;;5096081;27;20051;-81
2022/12/11 10:52:00;;;;;;;45.33;15.85;;;1.00;99.90;;;;;;5104792;28;20064;-82
2022/12/11 10:54:38;;;;;;;41.13;17.17;;;1.00;99.90;;;;;;5091262;28;20165;-81
2022/12/11 10:57:06;;;;;;;45.45;16.58;;;1.00;99.90;;;;;;5091998;28;20074;-80
2022/12/11 10:59:48;;;;;;;42.90;15.75;;;1.00;99.90;;;;;;5090726;28;20377;-80
2022/12/11 11:02:39;;;;;;;40.90;16.40;;;1.00;99.90;;;;;;5092456;28;20047;-82
2022/12/11 11:05:29;;;;;;;43.85;18.08;;;1.00;99.90;;;;;;5086544;28;20054;-81
2022/12/11 11:08:18;;;;;;;45.50;17.42;;;1.00;99.90;;;;;;5076600;28;20032;-81
2022/12/11 11:10:50;;;;;;;45.50;18.38;;;1.00;99.90;;;;;;5103714;27;20047;-81
2022/12/11 11:13:16;;;;;;;52.20;19.67;;;1.00;99.90;;;;;;5093493;27;20797;-82
2022/12/11 11:15:42;;;;;;;44.50;20.45;;;1.00;99.90;;;;;;5111215;27;20092;-82
2022/12/11 11:18:24;;;;;;;42.10;17.60;;;1.00;99.90;;;;;;5112929;27;20046;-81
2022/12/11 11:20:50;;;;;;;40.08;15.63;;;1.10;99.90;;;;;;5109267;28;20047;-81
2022/12/11 11:23:20;;;;;;;38.90;15.68;;;1.00;99.90;;;;;;5092366;28;20749;-82
2022/12/11 11:25:56;;;;;;;43.20;17.35;;;1.00;99.90;;;;;;5090454;28;20042;-82
2022/12/11 11:28:26;;;;;;;36.00;15.20;;;1.10;99.90;;;;;;5103567;28;20602;-81
2022/12/11 11:31:10;;;;;;;38.67;16.27;;;1.10;99.90;;;;;;5102094;27;20043;-82
2022/12/11 11:33:44;;;;;;;44.50;16.83;;;1.10;99.90;;;;;;5093938;28;20366;-82
2022/12/11 11:36:22;;;;;;;43.83;16.48;;;1.00;99.90;;;;;;5091788;28;20082;-83
2022/12/11 11:39:17;;;;;;;43.15;16.77;;;1.10;99.90;;;;;;5092321;28;20083;-84
2022/12/11 11:42:06;;;;;;;43.63;16.58;;;1.10;99.90;;;;;;5091583;28;20092;-85
2022/12/11 11:44:40;;;;;;;44.67;18.05;;;1.10;99.90;;;;;;5118960;27;20043;-84
2022/12/11 11:47:23;;;;;;;42.20;16.58;;;1.20;99.90;;;;;;5106500;28;20032;-83
2022/12/11 11:49:56;;;;;;;46.58;17.05;;;1.10;99.90;;;;;;5095673;27;20049;-83
2022/12/11 11:52:45;;;;;;;47.85;17.27;;;1.10;99.90;;;;;;5112448;27;20176;-83
2022/12/11 11:55:52;;;;;;;45.83;16.85;;;1.10;99.90;;;;;;5095129;28;20051;-83
2022/12/11 11:58:24;;;;;;;62.13;26.30;;;1.10;99.90;;;;;;5028136;28;20057;-82
2022/12/11 12:00:52;;;;;;;52.58;20.67;;;1.10;99.90;;;;;;5099771;28;20509;-83
2022/12/11 12:03:20;;;;;;;47.42;17.98;;;1.20;99.90;;;;;;5105981;27;20629;-83
2022/12/11 12:06:09;;;;;;;50.78;20.35;;;1.20;99.90;;;;;;5092772;27;20078;-83
2022/12/11 12:08:56;;;;;;;60.53;23.55;;;1.10;99.90;;;;;;5087098;28;20044;-82
2022/12/11 12:12:00;;;;;;;46.47;15.90;;;1.20;99.90;;;;;;5078658;28;20060;-82
2022/12/11 12:14:34;;;;;;;50.00;17.88;;;1.10;99.90;;;;;;5073653;28;20036;-83
2022/12/11 12:17:08;;;;;;;43.65;17.50;;;1.20;99.90;;;;;;5094012;27;20079;-82
2022/12/11 12:19:42;;;;;;;49.30;20.38;;;1.30;99.90;;;;;;5111430;27;20051;-83
2022/12/11 12:22:42;;;;;;;49.05;18.38;;;1.20;99.90;;;;;;5099525;28;20039;-83
2022/12/11 12:25:18;;;;;;;39.30;17.45;;;1.20;99.90;;;;;;5057767;28;20062;-83
2022/12/11 12:28:31;;;;;;;46.55;18.50;;;1.20;99.90;;;;;;5109202;28;20150;-82
2022/12/11 12:31:24;;;;;;;43.90;18.10;;;1.20;99.90;;;;;;5099436;27;20118;-83
2022/12/11 12:34:19;;;;;;;43.95;17.50;;;1.20;99.90;;;;;;5110024;27;20066;-83
2022/12/11 12:36:59;;;;;;;45.63;18.35;;;1.20;99.90;;;;;;5104863;27;20079;-83
2022/12/11 12:39:35;;;;;;;45.83;17.75;;;1.20;99.90;;;;;;5108677;27;20058;-83
2022/12/11 12:42:18;;;;;;;42.40;18.30;;;1.20;99.90;;;;;;5096119;27;20431;-83
2022/12/11 12:45:02;;;;;;;47.58;20.70;;;1.20;99.90;;;;;;5109788;27;20191;-83
2022/12/11 12:47:32;;;;;;;43.90;20.27;;;1.10;99.90;;;;;;5109107;27;20046;-82
2022/12/11 12:50:00;;;;;;;47.33;19.45;;;1.10;99.90;;;;;;5103847;28;20046;-83
2022/12/11 12:52:32;;;;;;;46.72;19.27;;;1.10;99.90;;;;;;5083537;28;20119;-83
2022/12/11 12:55:12;;;;;;;;;;;1.10;99.90;;;;;;5092599;27;20102;-83
2022/12/11 12:57:48;;;;;;;46.58;18.52;;;1.10;99.90;;;;;;5095495;27;19924;-82
2022/12/11 13:00:36;;;;;;;52.50;18.70;;;1.20;99.90;;;;;;5068846;28;20082;-82
2022/12/11 13:03:19;;;;;;;49.50;18.98;;;1.20;99.90;;;;;;5076316;27;20039;-82
2022/12/11 13:05:58;;;;;;;45.47;18.98;;;1.20;99.90;;;;;;5111446;27;20442;-82
2022/12/11 13:08:38;;;;;;;47.08;20.08;;;1.20;99.90;;;;;;5129458;27;20477;-83
2022/12/11 13:11:07;;;;;;;44.80;19.38;;;1.20;99.90;;;;;;5110288;27;20042;-83
2022/12/11 13:13:40;;;;;;;46.47;19.48;;;1.20;99.90;;;;;;5110330;27;20054;-82
2022/12/11 13:16:07;;;;;;;49.25;17.98;;;1.20;99.90;;;;;;5108775;27;21707;-83
2022/12/11 13:18:38;;;;;;;46.92;18.70;;;1.30;99.90;;;;;;5073114;28;20048;-82
2022/12/11 13:21:24;;;;;;;45.33;18.33;;;1.30;99.90;;;;;;5094645;27;20429;-83
2022/12/11 13:23:50;;;;;;;44.55;19.02;;;1.20;99.90;;;;;;5110586;28;20436;-84
2022/12/11 13:26:31;;;;;;;40.35;17.63;;;1.20;99.90;;;;;;5109150;27;20043;-83
2022/12/11 13:28:57;;;;;;;44.40;19.98;;;1.20;99.90;;;;;;5110094;27;20043;-83
2022/12/11 13:31:38;;;;;;;49.33;20.23;;;1.20;99.90;;;;;;5128295;27;20047;-83
2022/12/11 13:34:23;;;;;;;48.25;19.48;;;1.30;99.90;;;;;;5087952;28;20048;-83
2022/12/11 13:36:51;;;;;;;44.85;18.48;;;1.20;99.90;;;;;;5099683;28;20189;-83
2022/12/11 13:39:22;;;;;;;46.15;19.42;;;1.10;99.90;;;;;;5128385;28;20153;-83
2022/12/11 13:41:52;;;;;;;46.30;19.77;;;1.20;99.90;;;;;;5092962;28;20058;-83
2022/12/11 13:44:26;;;;;;;46.65;18.70;;;1.10;99.90;;;;;;5109848;28;20055;-83
2022/12/11 13:46:55;;;;;;;43.53;17.85;;;1.20;99.90;;;;;;5093561;28;20074;-82
2022/12/11 13:49:28;;;;;;;45.95;17.50;;;1.10;99.90;;;;;;5093263;28;20114;-83
2022/12/11 13:51:57;;;;;;;41.90;17.98;;;1.20;99.90;;;;;;5088148;28;20104;-83
2022/12/11 13:54:23;;;;;;;41.20;17.42;;;1.10;99.90;;;;;;5072909;28;20046;-83
2022/12/11 13:57:15;;;;;;;38.00;17.25;;;1.10;99.90;;;;;;5089965;28;20190;-83
2022/12/11 13:59:47;;;;;;;38.63;16.60;;;1.00;99.90;;;;;;5080603;28;20059;-83
2022/12/11 14:02:22;;;;;;;38.28;17.08;;;;;;;;;;5089832;28;20126;-84
2022/12/11 14:04:50;;;;;;;40.05;17.73;;;1.10;99.90;;;;;;5091477;28;20075;-83
2022/12/11 14:07:23;;;;;;;41.15;18.83;;;1.10;99.90;;;;;;5089717;28;20047;-84
2022/12/11 14:09:49;;;;;;;35.97;15.95;;;1.10;99.90;;;;;;5089917;28;20058;-81
2022/12/11 14:12:19;;;;;;;34.40;17.33;;;1.00;99.90;;;;;;5107091;28;20075;-81
2022/12/11 14:14:55;;;;;;;34.83;16.92;;;1.10;99.90;;;;;;5072082;28;20075;-81
2022/12/11 14:17:27;;;;;;;36.38;16.33;;;1.30;99.90;;;;;;5089344;28;20063;-81